sensor_id;sensor_type;location;lat;lon;timestamp;temperature;humidity
35258;DHT22;21385;50.878;8.050;2023-02-15T00:01:42;2.10;99.90
35258;DHT22;21385;50.878;8.050;2023-02-15T00:04:08;2.10;99.90
35258;DHT22;21385;50.878;8.050;2023-02-15T00:06:34;2.10;99.90
35258;DHT22;21385;50.878;8.050;2023-02-15T00:09:01;2.00;99.90
35258;DHT22;21385;50.878;8.050;2023-02-15T00:11:27;1.90;99.90
35258;DHT22;21385;50.878;8.050;2023-02-15T00:14:13;1.90;99.90
35258;DHT22;21385;50.878;8.050;2023-02-15T00:16:40;1.90;99.90
35258;DHT22;21385;50.878;8.050;2023-02-15T00:19:06;1.90;99.90
35258;DHT22;21385;50.878;8.050;2023-02-15T00:21:33;1.80;99.90
35258;DHT22;21385;50.878;8.050;2023-02-15T00:24:01;1.90;99.90
35258;DHT22;21385;50.878;8.050;2023-02-15T00:26:27;1.90;99.90
35258;DHT22;21385;50.878;8.050;2023-02-15T00:28:53;1.80;99.90
35258;DHT22;21385;50.878;8.050;2023-02-15T00:31:20;1.90;99.90
35258;DHT22;21385;50.878;8.050;2023-02-15T00:33:46;1.70;99.90
35258;DHT22;21385;50.878;8.050;2023-02-15T00:36:11;1.70;99.90
35258;DHT22;21385;50.878;8.050;2023-02-15T00:38:38;1.60;99.90
35258;DHT22;21385;50.878;8.050;2023-02-15T00:41:05;1.60;99.90
35258;DHT22;21385;50.878;8.050;2023-02-15T00:43:32;1.60;99.90
35258;DHT22;21385;50.878;8.050;2023-02-15T00:45:58;1.60;99.90
35258;DHT22;21385;50.878;8.050;2023-02-15T00:48:24;1.60;99.90
35258;DHT22;21385;50.878;8.050;2023-02-15T00:50:58;1.60;99.90
35258;DHT22;21385;50.878;8.050;2023-02-15T00:53:25;1.60;99.90
35258;DHT22;21385;50.878;8.050;2023-02-15T00:55:50;1.50;99.90
35258;DHT22;21385;50.878;8.050;2023-02-15T00:58:16;1.50;99.90
35258;DHT22;21385;50.878;8.050;2023-02-15T01:00:46;1.50;99.90
35258;DHT22;21385;50.878;8.050;2023-02-15T01:03:13;1.40;99.90
35258;DHT22;21385;50.878;8.050;2023-02-15T01:05:39;1.50;99.90
35258;DHT22;21385;50.878;8.050;2023-02-15T01:08:05;1.50;99.90
35258;DHT22;21385;50.878;8.050;2023-02-15T01:10:31;1.60;99.90
35258;DHT22;21385;50.878;8.050;2023-02-15T01:12:57;1.50;99.90
35258;DHT22;21385;50.878;8.050;2023-02-15T01:15:24;1.60;99.90
35258;DHT22;21385;50.878;8.050;2023-02-15T01:17:50;1.70;99.90
35258;DHT22;21385;50.878;8.050;2023-02-15T01:20:24;1.70;99.90
35258;DHT22;21385;50.878;8.050;2023-02-15T01:22:50;1.80;99.90
35258;DHT22;21385;50.878;8.050;2023-02-15T01:25:17;1.70;99.90
35258;DHT22;21385;50.878;8.050;2023-02-15T01:27:42;1.70;99.90
35258;DHT22;21385;50.878;8.050;2023-02-15T01:30:09;1.80;99.90
35258;DHT22;21385;50.878;8.050;2023-02-15T01:32:34;1.80;99.90
35258;DHT22;21385;50.878;8.050;2023-02-15T01:35:00;1.70;99.90
35258;DHT22;21385;50.878;8.050;2023-02-15T01:37:26;1.80;99.90
35258;DHT22;21385;50.878;8.050;2023-02-15T01:39:51;1.80;99.90
35258;DHT22;21385;50.878;8.050;2023-02-15T01:42:23;1.90;99.90
35258;DHT22;21385;50.878;8.050;2023-02-15T01:44:50;1.90;99.90
35258;DHT22;21385;50.878;8.050;2023-02-15T01:50:16;1.80;99.90
35258;DHT22;21385;50.878;8.050;2023-02-15T01:55:16;1.90;99.90
35258;DHT22;21385;50.878;8.050;2023-02-15T01:57:43;1.90;99.90
35258;DHT22;21385;50.878;8.050;2023-02-15T02:00:11;2.00;99.90
35258;DHT22;21385;50.878;8.050;2023-02-15T02:02:39;2.10;99.90
35258;DHT22;21385;50.878;8.050;2023-02-15T02:05:06;2.00;99.90
35258;DHT22;21385;50.878;8.050;2023-02-15T02:07:39;1.90;99.90
35258;DHT22;21385;50.878;8.050;2023-02-15T02:10:06;1.80;99.90
35258;DHT22;21385;50.878;8.050;2023-02-15T02:12:32;1.80;99.90
35258;DHT22;21385;50.878;8.050;2023-02-15T02:14:59;1.70;99.90
35258;DHT22;21385;50.878;8.050;2023-02-15T02:27:50;1.80;99.90
35258;DHT22;21385;50.878;8.050;2023-02-15T02:39:14;1.60;99.90
35258;DHT22;21385;50.878;8.050;2023-02-15T02:44:44;1.60;99.90
35258;DHT22;21385;50.878;8.050;2023-02-15T02:49:52;1.60;99.90
35258;DHT22;21385;50.878;8.050;2023-02-15T02:52:39;1.60;99.90
35258;DHT22;21385;50.878;8.050;2023-02-15T02:55:30;1.50;99.90
35258;DHT22;21385;50.878;8.050;2023-02-15T03:00:53;1.50;99.90
35258;DHT22;21385;50.878;8.050;2023-02-15T03:06:33;1.40;99.90
35258;DHT22;21385;50.878;8.050;2023-02-15T03:09:09;1.40;99.90
35258;DHT22;21385;50.878;8.050;2023-02-15T03:11:41;1.40;99.90
35258;DHT22;21385;50.878;8.050;2023-02-15T03:14:07;1.40;99.90
35258;DHT22;21385;50.878;8.050;2023-02-15T03:16:33;1.40;99.90
35258;DHT22;21385;50.878;8.050;2023-02-15T03:19:03;1.40;99.90
35258;DHT22;21385;50.878;8.050;2023-02-15T03:21:47;1.40;99.90
35258;DHT22;21385;50.878;8.050;2023-02-15T03:24:19;1.30;99.90
35258;DHT22;21385;50.878;8.050;2023-02-15T03:26:49;1.30;99.90
35258;DHT22;21385;50.878;8.050;2023-02-15T03:29:18;1.30;99.90
35258;DHT22;21385;50.878;8.050;2023-02-15T03:31:46;1.40;99.90
35258;DHT22;21385;50.878;8.050;2023-02-15T03:34:16;1.40;99.90
35258;DHT22;21385;50.878;8.050;2023-02-15T03:45:03;1.40;99.90
35258;DHT22;21385;50.878;8.050;2023-02-15T03:47:33;1.40;99.90
35258;DHT22;21385;50.878;8.050;2023-02-15T03:52:28;1.40;99.90
35258;DHT22;21385;50.878;8.050;2023-02-15T03:54:55;1.40;99.90
35258;DHT22;21385;50.878;8.050;2023-02-15T03:57:27;1.50;99.90
35258;DHT22;21385;50.878;8.050;2023-02-15T04:00:19;1.50;99.90
35258;DHT22;21385;50.878;8.050;2023-02-15T04:05:42;1.50;99.90
35258;DHT22;21385;50.878;8.050;2023-02-15T04:08:08;1.50;99.90
35258;DHT22;21385;50.878;8.050;2023-02-15T04:10:34;1.50;99.90
35258;DHT22;21385;50.878;8.050;2023-02-15T04:13:22;1.50;99.90
35258;DHT22;21385;50.878;8.050;2023-02-15T04:15:47;1.50;99.90
35258;DHT22;21385;50.878;8.050;2023-02-15T04:18:33;1.50;99.90
35258;DHT22;21385;50.878;8.050;2023-02-15T04:21:18;1.50;99.90
35258;DHT22;21385;50.878;8.050;2023-02-15T04:24:03;1.50;99.90
35258;DHT22;21385;50.878;8.050;2023-02-15T04:26:47;1.50;99.90
35258;DHT22;21385;50.878;8.050;2023-02-15T04:29:14;1.50;99.90
35258;DHT22;21385;50.878;8.050;2023-02-15T04:31:40;1.50;99.90
35258;DHT22;21385;50.878;8.050;2023-02-15T04:34:06;1.50;99.90
35258;DHT22;21385;50.878;8.050;2023-02-15T04:36:31;1.50;99.90
35258;DHT22;21385;50.878;8.050;2023-02-15T04:38:57;1.50;99.90
35258;DHT22;21385;50.878;8.050;2023-02-15T04:41:22;1.40;99.90
35258;DHT22;21385;50.878;8.050;2023-02-15T04:43:48;1.50;99.90
35258;DHT22;21385;50.878;8.050;2023-02-15T04:46:14;1.50;99.90
35258;DHT22;21385;50.878;8.050;2023-02-15T04:48:39;1.50;99.90
35258;DHT22;21385;50.878;8.050;2023-02-15T04:51:06;1.50;99.90
35258;DHT22;21385;50.878;8.050;2023-02-15T04:53:32;1.50;99.90
35258;DHT22;21385;50.878;8.050;2023-02-15T04:55:58;1.50;99.90
35258;DHT22;21385;50.878;8.050;2023-02-15T04:58:23;1.50;99.90
35258;DHT22;21385;50.878;8.050;2023-02-15T05:00:49;1.50;99.90
35258;DHT22;21385;50.878;8.050;2023-02-15T05:03:14;1.50;99.90
35258;DHT22;21385;50.878;8.050;2023-02-15T05:05:40;1.50;99.90
35258;DHT22;21385;50.878;8.050;2023-02-15T05:08:06;1.40;99.90
35258;DHT22;21385;50.878;8.050;2023-02-15T05:10:31;1.40;99.90
35258;DHT22;21385;50.878;8.050;2023-02-15T05:12:57;1.40;99.90
35258;DHT22;21385;50.878;8.050;2023-02-15T05:15:22;1.30;99.90
35258;DHT22;21385;50.878;8.050;2023-02-15T05:17:48;1.20;99.90
35258;DHT22;21385;50.878;8.050;2023-02-15T05:20:13;1.20;99.90
35258;DHT22;21385;50.878;8.050;2023-02-15T05:22:39;1.20;99.90
35258;DHT22;21385;50.878;8.050;2023-02-15T05:25:06;1.10;99.90
35258;DHT22;21385;50.878;8.050;2023-02-15T05:27:50;1.10;99.90
35258;DHT22;21385;50.878;8.050;2023-02-15T05:30:34;1.00;99.90
35258;DHT22;21385;50.878;8.050;2023-02-15T05:33:00;1.00;99.90
35258;DHT22;21385;50.878;8.050;2023-02-15T05:35:26;1.00;99.90
35258;DHT22;21385;50.878;8.050;2023-02-15T05:37:51;1.00;99.90
35258;DHT22;21385;50.878;8.050;2023-02-15T05:40:17;1.00;99.90
35258;DHT22;21385;50.878;8.050;2023-02-15T05:42:42;0.90;99.90
35258;DHT22;21385;50.878;8.050;2023-02-15T05:45:08;0.90;99.90
35258;DHT22;21385;50.878;8.050;2023-02-15T05:47:34;1.00;99.90
35258;DHT22;21385;50.878;8.050;2023-02-15T05:50:00;0.90;99.90
35258;DHT22;21385;50.878;8.050;2023-02-15T05:52:25;0.90;99.90
35258;DHT22;21385;50.878;8.050;2023-02-15T05:54:51;0.80;99.90
35258;DHT22;21385;50.878;8.050;2023-02-15T05:57:16;0.80;99.90
35258;DHT22;21385;50.878;8.050;2023-02-15T05:59:42;0.70;99.90
35258;DHT22;21385;50.878;8.050;2023-02-15T06:02:07;0.70;99.90
35258;DHT22;21385;50.878;8.050;2023-02-15T06:04:33;0.70;99.90
35258;DHT22;21385;50.878;8.050;2023-02-15T06:06:59;0.70;99.90
35258;DHT22;21385;50.878;8.050;2023-02-15T06:09:24;0.60;99.90
35258;DHT22;21385;50.878;8.050;2023-02-15T06:11:50;0.60;99.90
35258;DHT22;21385;50.878;8.050;2023-02-15T06:14:15;0.60;99.90
35258;DHT22;21385;50.878;8.050;2023-02-15T06:16:41;0.60;99.90
35258;DHT22;21385;50.878;8.050;2023-02-15T06:19:07;0.60;99.90
35258;DHT22;21385;50.878;8.050;2023-02-15T06:21:32;0.50;99.90
35258;DHT22;21385;50.878;8.050;2023-02-15T06:23:58;0.50;99.90
35258;DHT22;21385;50.878;8.050;2023-02-15T06:26:23;0.40;99.90
35258;DHT22;21385;50.878;8.050;2023-02-15T06:28:49;0.40;99.90
35258;DHT22;21385;50.878;8.050;2023-02-15T06:31:15;0.30;99.90
35258;DHT22;21385;50.878;8.050;2023-02-15T06:33:40;0.30;99.90
35258;DHT22;21385;50.878;8.050;2023-02-15T06:36:06;0.30;99.90
35258;DHT22;21385;50.878;8.050;2023-02-15T06:38:32;0.30;99.90
35258;DHT22;21385;50.878;8.050;2023-02-15T06:40:58;0.30;99.90
35258;DHT22;21385;50.878;8.050;2023-02-15T06:43:23;0.30;99.90
35258;DHT22;21385;50.878;8.050;2023-02-15T06:45:49;0.30;99.90
35258;DHT22;21385;50.878;8.050;2023-02-15T06:48:14;0.30;99.90
35258;DHT22;21385;50.878;8.050;2023-02-15T06:50:40;0.30;99.90
35258;DHT22;21385;50.878;8.050;2023-02-15T06:53:05;0.30;99.90
35258;DHT22;21385;50.878;8.050;2023-02-15T06:55:31;0.30;99.90
35258;DHT22;21385;50.878;8.050;2023-02-15T06:57:57;0.30;99.90
35258;DHT22;21385;50.878;8.050;2023-02-15T07:00:22;0.30;99.90
35258;DHT22;21385;50.878;8.050;2023-02-15T07:02:56;0.30;99.90
35258;DHT22;21385;50.878;8.050;2023-02-15T07:05:23;0.30;99.90
35258;DHT22;21385;50.878;8.050;2023-02-15T07:07:49;0.30;99.90
35258;DHT22;21385;50.878;8.050;2023-02-15T07:10:15;0.30;99.90
35258;DHT22;21385;50.878;8.050;2023-02-15T07:12:41;0.30;99.90
35258;DHT22;21385;50.878;8.050;2023-02-15T07:15:09;0.40;99.90
35258;DHT22;21385;50.878;8.050;2023-02-15T07:17:35;0.30;99.90
35258;DHT22;21385;50.878;8.050;2023-02-15T07:20:03;0.30;99.90
35258;DHT22;21385;50.878;8.050;2023-02-15T07:22:28;0.30;99.90
35258;DHT22;21385;50.878;8.050;2023-02-15T07:24:54;0.30;99.90
35258;DHT22;21385;50.878;8.050;2023-02-15T07:27:20;0.40;99.90
35258;DHT22;21385;50.878;8.050;2023-02-15T07:29:46;0.40;99.90
35258;DHT22;21385;50.878;8.050;2023-02-15T07:32:12;0.40;99.90
35258;DHT22;21385;50.878;8.050;2023-02-15T07:34:38;0.40;99.90
35258;DHT22;21385;50.878;8.050;2023-02-15T07:37:05;0.40;99.90
35258;DHT22;21385;50.878;8.050;2023-02-15T07:39:30;0.50;99.90
35258;DHT22;21385;50.878;8.050;2023-02-15T07:41:56;0.60;99.90
35258;DHT22;21385;50.878;8.050;2023-02-15T07:44:21;0.60;99.90
35258;DHT22;21385;50.878;8.050;2023-02-15T07:46:47;0.60;99.90
35258;DHT22;21385;50.878;8.050;2023-02-15T07:49:13;0.70;99.90
35258;DHT22;21385;50.878;8.050;2023-02-15T07:51:39;0.70;99.90
35258;DHT22;21385;50.878;8.050;2023-02-15T07:54:06;0.90;99.90
35258;DHT22;21385;50.878;8.050;2023-02-15T07:56:32;0.90;99.90
35258;DHT22;21385;50.878;8.050;2023-02-15T07:58:58;1.00;99.90
35258;DHT22;21385;50.878;8.050;2023-02-15T08:01:31;1.10;99.90
35258;DHT22;21385;50.878;8.050;2023-02-15T08:03:57;1.10;99.90
35258;DHT22;21385;50.878;8.050;2023-02-15T08:06:26;1.10;99.90
35258;DHT22;21385;50.878;8.050;2023-02-15T08:08:52;1.20;99.90
35258;DHT22;21385;50.878;8.050;2023-02-15T08:11:29;1.20;99.90
35258;DHT22;21385;50.878;8.050;2023-02-15T08:14:06;1.30;99.90
35258;DHT22;21385;50.878;8.050;2023-02-15T08:16:33;1.40;99.90
35258;DHT22;21385;50.878;8.050;2023-02-15T08:19:07;1.40;99.90
35258;DHT22;21385;50.878;8.050;2023-02-15T08:21:35;1.50;99.90
35258;DHT22;21385;50.878;8.050;2023-02-15T08:24:00;1.70;99.90
35258;DHT22;21385;50.878;8.050;2023-02-15T08:26:27;1.80;99.90
35258;DHT22;21385;50.878;8.050;2023-02-15T08:28:53;1.90;99.90
35258;DHT22;21385;50.878;8.050;2023-02-15T08:31:19;1.90;99.90
35258;DHT22;21385;50.878;8.050;2023-02-15T08:33:46;2.00;99.90
35258;DHT22;21385;50.878;8.050;2023-02-15T08:36:17;2.10;99.90
35258;DHT22;21385;50.878;8.050;2023-02-15T08:38:43;2.20;99.90
35258;DHT22;21385;50.878;8.050;2023-02-15T08:41:22;2.30;99.90
35258;DHT22;21385;50.878;8.050;2023-02-15T08:43:50;2.40;99.90
35258;DHT22;21385;50.878;8.050;2023-02-15T08:46:17;2.50;99.90
35258;DHT22;21385;50.878;8.050;2023-02-15T08:48:43;2.60;99.90
35258;DHT22;21385;50.878;8.050;2023-02-15T08:51:13;2.70;99.90
35258;DHT22;21385;50.878;8.050;2023-02-15T08:53:40;2.80;99.90
35258;DHT22;21385;50.878;8.050;2023-02-15T08:56:07;2.90;99.90
35258;DHT22;21385;50.878;8.050;2023-02-15T08:58:33;3.00;99.90
35258;DHT22;21385;50.878;8.050;2023-02-15T09:00:59;3.10;99.90
35258;DHT22;21385;50.878;8.050;2023-02-15T09:03:28;3.20;99.90
35258;DHT22;21385;50.878;8.050;2023-02-15T09:05:58;3.30;99.90
35258;DHT22;21385;50.878;8.050;2023-02-15T09:08:24;3.40;99.90
35258;DHT22;21385;50.878;8.050;2023-02-15T09:10:50;3.60;99.90
35258;DHT22;21385;50.878;8.050;2023-02-15T09:13:15;3.70;99.90
35258;DHT22;21385;50.878;8.050;2023-02-15T09:15:41;3.80;99.90
35258;DHT22;21385;50.878;8.050;2023-02-15T09:18:07;4.00;99.90
35258;DHT22;21385;50.878;8.050;2023-02-15T09:20:35;4.00;99.90
35258;DHT22;21385;50.878;8.050;2023-02-15T09:23:01;4.20;99.90
35258;DHT22;21385;50.878;8.050;2023-02-15T09:25:27;4.30;99.90
35258;DHT22;21385;50.878;8.050;2023-02-15T09:27:53;4.40;99.90
35258;DHT22;21385;50.878;8.050;2023-02-15T09:30:19;4.50;99.90
35258;DHT22;21385;50.878;8.050;2023-02-15T09:32:44;4.70;99.90
35258;DHT22;21385;50.878;8.050;2023-02-15T09:35:13;4.80;99.90
35258;DHT22;21385;50.878;8.050;2023-02-15T09:37:38;4.90;99.90
35258;DHT22;21385;50.878;8.050;2023-02-15T09:40:04;5.00;99.90
35258;DHT22;21385;50.878;8.050;2023-02-15T09:42:55;5.20;99.90
35258;DHT22;21385;50.878;8.050;2023-02-15T09:45:53;5.30;99.90
35258;DHT22;21385;50.878;8.050;2023-02-15T09:48:39;5.50;99.90
35258;DHT22;21385;50.878;8.050;2023-02-15T09:56:57;5.80;99.90
35258;DHT22;21385;50.878;8.050;2023-02-15T10:05:21;6.30;99.90
35258;DHT22;21385;50.878;8.050;2023-02-15T10:07:58;6.50;99.90
35258;DHT22;21385;50.878;8.050;2023-02-15T10:14:06;7.00;99.90
35258;DHT22;21385;50.878;8.050;2023-02-15T10:19:59;7.20;99.90
35258;DHT22;21385;50.878;8.050;2023-02-15T10:27:51;7.70;99.90
35258;DHT22;21385;50.878;8.050;2023-02-15T10:33:02;8.00;99.90
35258;DHT22;21385;50.878;8.050;2023-02-15T10:35:52;8.10;99.90
35258;DHT22;21385;50.878;8.050;2023-02-15T10:38:39;8.20;99.90
35258;DHT22;21385;50.878;8.050;2023-02-15T10:44:08;8.50;99.90
35258;DHT22;21385;50.878;8.050;2023-02-15T10:49:34;8.80;99.90
35258;DHT22;21385;50.878;8.050;2023-02-15T11:06:14;9.80;99.90
35258;DHT22;21385;50.878;8.050;2023-02-15T11:08:53;9.90;99.90
35258;DHT22;21385;50.878;8.050;2023-02-15T11:11:34;10.10;99.90
35258;DHT22;21385;50.878;8.050;2023-02-15T11:14:03;10.20;99.90
35258;DHT22;21385;50.878;8.050;2023-02-15T11:16:34;10.40;99.90
35258;DHT22;21385;50.878;8.050;2023-02-15T11:19:18;10.50;99.90
35258;DHT22;21385;50.878;8.050;2023-02-15T11:21:49;10.60;99.90
35258;DHT22;21385;50.878;8.050;2023-02-15T11:24:18;10.70;99.90
35258;DHT22;21385;50.878;8.050;2023-02-15T11:26:59;10.70;99.90
35258;DHT22;21385;50.878;8.050;2023-02-15T11:29:33;10.90;99.90
35258;DHT22;21385;50.878;8.050;2023-02-15T11:32:20;11.10;99.90
35258;DHT22;21385;50.878;8.050;2023-02-15T11:37:36;11.50;99.80
35258;DHT22;21385;50.878;8.050;2023-02-15T11:40:19;11.70;99.40
35258;DHT22;21385;50.878;8.050;2023-02-15T11:42:47;11.90;98.60
35258;DHT22;21385;50.878;8.050;2023-02-15T11:45:28;12.00;97.70
35258;DHT22;21385;50.878;8.050;2023-02-15T11:47:55;12.20;97.60
35258;DHT22;21385;50.878;8.050;2023-02-15T11:50:30;12.20;97.70
35258;DHT22;21385;50.878;8.050;2023-02-15T11:52:59;12.40;97.50
35258;DHT22;21385;50.878;8.050;2023-02-15T11:55:27;12.40;97.30
35258;DHT22;21385;50.878;8.050;2023-02-15T11:58:00;12.60;97.30
35258;DHT22;21385;50.878;8.050;2023-02-15T12:00:35;12.90;96.90
35258;DHT22;21385;50.878;8.050;2023-02-15T12:03:13;13.20;95.80
35258;DHT22;21385;50.878;8.050;2023-02-15T12:05:42;13.40;95.10
35258;DHT22;21385;50.878;8.050;2023-02-15T12:08:15;13.60;94.70
35258;DHT22;21385;50.878;8.050;2023-02-15T12:10:57;13.70;94.00
35258;DHT22;21385;50.878;8.050;2023-02-15T12:15:54;14.00;92.30
35258;DHT22;21385;50.878;8.050;2023-02-15T12:18:34;14.10;92.50
35258;DHT22;21385;50.878;8.050;2023-02-15T12:21:11;14.00;92.40
35258;DHT22;21385;50.878;8.050;2023-02-15T12:26:43;14.20;91.90
35258;DHT22;21385;50.878;8.050;2023-02-15T12:29:23;14.40;91.40
35258;DHT22;21385;50.878;8.050;2023-02-15T12:31:51;14.70;90.70
35258;DHT22;21385;50.878;8.050;2023-02-15T12:34:30;15.00;90.60
35258;DHT22;21385;50.878;8.050;2023-02-15T12:37:00;15.10;89.80
35258;DHT22;21385;50.878;8.050;2023-02-15T12:39:30;15.30;88.20
35258;DHT22;21385;50.878;8.050;2023-02-15T12:47:04;15.60;83.90
35258;DHT22;21385;50.878;8.050;2023-02-15T12:49:32;15.50;84.90
35258;DHT22;21385;50.878;8.050;2023-02-15T12:52:03;15.60;84.60
35258;DHT22;21385;50.878;8.050;2023-02-15T12:54:30;15.70;85.70
35258;DHT22;21385;50.878;8.050;2023-02-15T12:56:57;15.80;83.40
35258;DHT22;21385;50.878;8.050;2023-02-15T12:59:23;16.00;83.30
35258;DHT22;21385;50.878;8.050;2023-02-15T13:01:51;16.10;81.40
35258;DHT22;21385;50.878;8.050;2023-02-15T13:04:25;16.20;81.30
35258;DHT22;21385;50.878;8.050;2023-02-15T13:06:53;16.40;79.60
35258;DHT22;21385;50.878;8.050;2023-02-15T13:09:34;16.60;79.90
35258;DHT22;21385;50.878;8.050;2023-02-15T13:12:23;16.80;77.20
35258;DHT22;21385;50.878;8.050;2023-02-15T13:14:52;17.00;75.40
35258;DHT22;21385;50.878;8.050;2023-02-15T13:17:32;17.10;74.50
35258;DHT22;21385;50.878;8.050;2023-02-15T13:20:05;17.10;74.40
35258;DHT22;21385;50.878;8.050;2023-02-15T13:22:40;17.00;73.90
35258;DHT22;21385;50.878;8.050;2023-02-15T13:25:18;17.00;73.30
35258;DHT22;21385;50.878;8.050;2023-02-15T13:27:46;17.00;73.20
35258;DHT22;21385;50.878;8.050;2023-02-15T13:32:44;17.00;73.20
35258;DHT22;21385;50.878;8.050;2023-02-15T13:35:15;17.20;73.20
35258;DHT22;21385;50.878;8.050;2023-02-15T13:40:46;17.20;70.30
35258;DHT22;21385;50.878;8.050;2023-02-15T13:43:49;17.00;71.30
35258;DHT22;21385;50.878;8.050;2023-02-15T13:51:43;17.50;70.60
35258;DHT22;21385;50.878;8.050;2023-02-15T14:15:49;18.20;65.50
35258;DHT22;21385;50.878;8.050;2023-02-15T14:18:29;18.30;65.50
35258;DHT22;21385;50.878;8.050;2023-02-15T14:26:35;17.90;64.30
35258;DHT22;21385;50.878;8.050;2023-02-15T14:32:05;17.70;65.60
35258;DHT22;21385;50.878;8.050;2023-02-15T14:34:50;17.70;65.70
35258;DHT22;21385;50.878;8.050;2023-02-15T14:43:11;17.50;64.90
35258;DHT22;21385;50.878;8.050;2023-02-15T14:45:49;17.30;65.70
35258;DHT22;21385;50.878;8.050;2023-02-15T14:50:54;16.80;67.10
35258;DHT22;21385;50.878;8.050;2023-02-15T14:58:56;16.90;67.70
35258;DHT22;21385;50.878;8.050;2023-02-15T15:01:26;17.10;66.20
35258;DHT22;21385;50.878;8.050;2023-02-15T15:03:55;17.10;66.40
35258;DHT22;21385;50.878;8.050;2023-02-15T15:06:33;17.10;66.00
35258;DHT22;21385;50.878;8.050;2023-02-15T15:09:21;17.10;65.90
35258;DHT22;21385;50.878;8.050;2023-02-15T15:11:49;17.20;65.20
35258;DHT22;21385;50.878;8.050;2023-02-15T15:17:01;16.80;66.00
35258;DHT22;21385;50.878;8.050;2023-02-15T15:22:24;16.00;68.30
35258;DHT22;21385;50.878;8.050;2023-02-15T15:24:58;15.70;69.50
35258;DHT22;21385;50.878;8.050;2023-02-15T15:27:37;15.50;70.70
35258;DHT22;21385;50.878;8.050;2023-02-15T15:35:43;14.60;74.00
35258;DHT22;21385;50.878;8.050;2023-02-15T15:41:17;14.00;76.60
35258;DHT22;21385;50.878;8.050;2023-02-15T15:49:08;12.80;81.70
35258;DHT22;21385;50.878;8.050;2023-02-15T15:51:40;12.20;84.60
35258;DHT22;21385;50.878;8.050;2023-02-15T15:54:05;11.70;87.50
35258;DHT22;21385;50.878;8.050;2023-02-15T15:56:34;11.30;89.90
35258;DHT22;21385;50.878;8.050;2023-02-15T15:59:04;11.00;91.20
35258;DHT22;21385;50.878;8.050;2023-02-15T16:01:35;10.70;92.60
35258;DHT22;21385;50.878;8.050;2023-02-15T16:04:03;10.50;93.60
35258;DHT22;21385;50.878;8.050;2023-02-15T16:06:33;10.40;94.80
35258;DHT22;21385;50.878;8.050;2023-02-15T16:11:44;9.90;97.30
35258;DHT22;21385;50.878;8.050;2023-02-15T16:14:16;9.70;98.30
35258;DHT22;21385;50.878;8.050;2023-02-15T16:16:48;9.60;99.20
35258;DHT22;21385;50.878;8.050;2023-02-15T16:19:42;9.40;99.90
35258;DHT22;21385;50.878;8.050;2023-02-15T16:22:29;9.20;99.90
35258;DHT22;21385;50.878;8.050;2023-02-15T16:27:47;8.70;99.90
35258;DHT22;21385;50.878;8.050;2023-02-15T16:30:32;8.40;99.90
35258;DHT22;21385;50.878;8.050;2023-02-15T16:33:08;8.20;99.90
35258;DHT22;21385;50.878;8.050;2023-02-15T16:35:36;7.90;99.90
35258;DHT22;21385;50.878;8.050;2023-02-15T16:38:03;7.70;99.90
35258;DHT22;21385;50.878;8.050;2023-02-15T16:40:53;7.60;99.90
35258;DHT22;21385;50.878;8.050;2023-02-15T16:43:25;7.40;99.90
35258;DHT22;21385;50.878;8.050;2023-02-15T16:45:54;7.20;99.90
35258;DHT22;21385;50.878;8.050;2023-02-15T16:48:24;7.10;99.90
35258;DHT22;21385;50.878;8.050;2023-02-15T16:50:54;7.00;99.90
35258;DHT22;21385;50.878;8.050;2023-02-15T16:53:26;7.00;99.90
35258;DHT22;21385;50.878;8.050;2023-02-15T16:56:00;6.90;99.90
35258;DHT22;21385;50.878;8.050;2023-02-15T16:58:48;6.80;99.90
35258;DHT22;21385;50.878;8.050;2023-02-15T17:01:15;6.60;99.90
35258;DHT22;21385;50.878;8.050;2023-02-15T17:03:41;6.50;99.90
35258;DHT22;21385;50.878;8.050;2023-02-15T17:06:25;6.40;99.90
35258;DHT22;21385;50.878;8.050;2023-02-15T17:09:04;6.30;99.90
35258;DHT22;21385;50.878;8.050;2023-02-15T17:11:35;6.20;99.90
35258;DHT22;21385;50.878;8.050;2023-02-15T17:16:35;6.00;99.90
35258;DHT22;21385;50.878;8.050;2023-02-15T17:19:02;6.00;99.90
35258;DHT22;21385;50.878;8.050;2023-02-15T17:21:39;5.90;99.90
35258;DHT22;21385;50.878;8.050;2023-02-15T17:24:13;5.80;99.90
35258;DHT22;21385;50.878;8.050;2023-02-15T17:26:40;5.70;99.90
35258;DHT22;21385;50.878;8.050;2023-02-15T17:31:47;5.80;99.90
35258;DHT22;21385;50.878;8.050;2023-02-15T17:34:41;5.70;99.90
35258;DHT22;21385;50.878;8.050;2023-02-15T17:37:30;5.60;99.90
35258;DHT22;21385;50.878;8.050;2023-02-15T17:39:57;5.60;99.90
35258;DHT22;21385;50.878;8.050;2023-02-15T17:42:23;5.70;99.90
35258;DHT22;21385;50.878;8.050;2023-02-15T17:44:49;5.60;99.90
35258;DHT22;21385;50.878;8.050;2023-02-15T17:47:17;5.60;99.90
35258;DHT22;21385;50.878;8.050;2023-02-15T17:49:44;5.60;99.90
35258;DHT22;21385;50.878;8.050;2023-02-15T17:52:13;5.60;99.90
35258;DHT22;21385;50.878;8.050;2023-02-15T17:54:39;5.50;99.90
35258;DHT22;21385;50.878;8.050;2023-02-15T17:57:24;5.50;99.90
35258;DHT22;21385;50.878;8.050;2023-02-15T17:59:51;5.50;99.90
35258;DHT22;21385;50.878;8.050;2023-02-15T18:02:35;5.50;99.90
35258;DHT22;21385;50.878;8.050;2023-02-15T18:05:20;5.40;99.90
35258;DHT22;21385;50.878;8.050;2023-02-15T18:08:15;5.30;99.90
35258;DHT22;21385;50.878;8.050;2023-02-15T18:11:00;5.30;99.90
35258;DHT22;21385;50.878;8.050;2023-02-15T18:13:45;5.30;99.90
35258;DHT22;21385;50.878;8.050;2023-02-15T18:16:13;5.30;99.90
35258;DHT22;21385;50.878;8.050;2023-02-15T18:18:40;5.20;99.90
35258;DHT22;21385;50.878;8.050;2023-02-15T18:21:05;5.10;99.90
35258;DHT22;21385;50.878;8.050;2023-02-15T18:23:34;5.10;99.90
35258;DHT22;21385;50.878;8.050;2023-02-15T18:25:59;5.10;99.90
35258;DHT22;21385;50.878;8.050;2023-02-15T18:28:25;5.00;99.90
35258;DHT22;21385;50.878;8.050;2023-02-15T18:30:51;5.00;99.90
35258;DHT22;21385;50.878;8.050;2023-02-15T18:36:14;5.00;99.90
35258;DHT22;21385;50.878;8.050;2023-02-15T18:38:41;4.90;99.90
35258;DHT22;21385;50.878;8.050;2023-02-15T18:41:06;4.90;99.90
35258;DHT22;21385;50.878;8.050;2023-02-15T18:43:32;4.90;99.90
35258;DHT22;21385;50.878;8.050;2023-02-15T18:45:57;4.80;99.90
35258;DHT22;21385;50.878;8.050;2023-02-15T18:48:23;4.90;99.90
35258;DHT22;21385;50.878;8.050;2023-02-15T18:50:49;4.80;99.90
35258;DHT22;21385;50.878;8.050;2023-02-15T18:53:19;4.80;99.90
35258;DHT22;21385;50.878;8.050;2023-02-15T18:55:45;4.80;99.90
35258;DHT22;21385;50.878;8.050;2023-02-15T18:58:21;4.80;99.90
35258;DHT22;21385;50.878;8.050;2023-02-15T19:00:52;4.70;99.90
35258;DHT22;21385;50.878;8.050;2023-02-15T19:03:19;4.70;99.90
35258;DHT22;21385;50.878;8.050;2023-02-15T19:05:45;4.70;99.90
35258;DHT22;21385;50.878;8.050;2023-02-15T19:08:17;4.70;99.90
35258;DHT22;21385;50.878;8.050;2023-02-15T19:10:44;4.70;99.90
35258;DHT22;21385;50.878;8.050;2023-02-15T19:13:11;4.70;99.90
35258;DHT22;21385;50.878;8.050;2023-02-15T19:15:37;4.70;99.90
35258;DHT22;21385;50.878;8.050;2023-02-15T19:18:03;4.60;99.90
35258;DHT22;21385;50.878;8.050;2023-02-15T19:20:40;4.60;99.90